Detall de PIREP

Printer-friendly versionPDF version

[2013/10/10 09:15:00]
Flight IATA:CT2205
Pilot Number:042
Company ICAO:CAT
Aircraft Type:C750/F
PAX:3
Departing Airport: LFRB
Destination Airport: LFMP
Alternate Airport:LFBO
Online: VATSIM
Route:ROSPO DCT DEGEX UN490 TERPO UM616 TUPAR UM184 CNA UN863 AGN UN727 TOU/N310F190 R17 MORIL
Flight Level:F350
No Slew and time accel
No pause
Crash detect
Detect pilot in Cockpit between each 30 and 45 minutes
09:15 Zero fuel Weight: 22920 Lbs, Fuel Weight: 12974 Lbs
09:15 VATSIM:LFRB 100900Z 01010KT 9999 SCT033 13/07 Q1023 NOSIG
09:15 VATSIM:LFMP 100900Z 31010KT 280V350 9999 FEW026 SCT230 19/08 Q1015 NOSIG
09:15 VOICE CATALONIAN
09:23 Parking Brakes off
09:33 Take-off
09:33 Take off Weight: 35748 Lbs
09:33 Wind: 139º @ 009 Knots Heading: 074º
09:33 POS N48º 26´ 55´´ W004º 24´ 53´´
09:33 Gear Up: 162 Knots
09:33 Flaps:3 at 162 Knots
09:34 Flaps:2 at 188 Knots
09:34 Flaps:0 at 200 Knots
09:46 TOC
09:46 Fuel Weight: 12221 Lb
09:48 Wind:317º@058 Knots Heading: 112º Ground Speed: 563 Knots Altitude 34619 ft
10:03 Wind:321º@064 Knots Heading: 165º Ground Speed: 551 Knots Altitude 34671 ft
10:15 TOD
10:15 Fuel Weight: 11433 Lb
10:18 Wind:321º@064 Knots Heading: 153º Ground Speed: 520 Knots Altitude 26197 ft
10:33 Wind:306º@020 Knots Heading: 130º Ground Speed: 249 Knots Altitude 7664 ft
10:38 Flaps:2 at 188 Knots
10:40 Flaps:3 at 153 Knots
10:42 Flaps:4 at 153 Knots
10:42 Gear Down: 153 Knots
10:45 TouchDown:Rate -445 ft/min Speed: 148 Knots
10:45 VATSIM:LFMP 101000Z 32012KT 9999 FEW026 BKN230 21/08 Q1015 NOSIG
10:45 Land
10:45 Wind:000º@002 Knots
10:45 Heading: 328º
10:45 Flight Duration: 01:12
10:45 Landing Weight: 34015 Lbs
10:45 POS N42º 45´ 04´´ E002º 51´ 51´´
10:50 Parking brakes on
10:50 Block to Block Duration: 01:27
10:50 Final Fuel: 11049 Lbls
10:50 Spent Fuel: 1924 Lbls
10:50 Flight Length: 512 NM
10:50 TOD Land Length: 161 NM

Exportar CSV

Powered by Drupal - Modified by Danger4k